Flight Track Log - Related Links

Times and Time Zones

All times are in EDT time to prevent confusion due to time zone crossing. See the DAL1007 flight status page for this flight to view local times or setup timezone preferences in your user account.

Time Position Orientation Groundspeed Altitude Reporting Facility
EDT Latitude Longitude Course Direction KTS MPH feet Rate Location/Type
Tue 05:56:05 PM 39.2833 -94.7167 169° South 152 175 1,900  Level Kansas City TRACON
Tue 05:57:11 PM 39.2167 -94.7333 191° South 243 280 3,800 2,455 Climbing Kansas City TRACON
Tue 05:58:00 PM 38.9807 -94.6546 165° South  Level FlightAware Approximate
Tue 05:58:17 PM 39.1333 -94.7000 163° South 289 333 7,300  Level Kansas City TRACON
Tue 05:59:00 PM 38.8714 -94.6243 171° South  Level FlightAware Approximate
Tue 05:59:17 PM 39.0625 -94.6875 172° South 279 321 10,300  Level Kansas City Center
Tue 06:00:00 PM 38.7608 -94.6021 171° South  Level FlightAware Approximate
Tue 06:00:19 PM 38.9750 -94.6661 169° South 333 383 11,700  Level Kansas City Center
Tue 06:01:00 PM 38.6505 -94.5793 169° South  Level FlightAware Approximate
Tue 06:01:21 PM 38.8756 -94.6408 169° South 375 432 13,300  Level Kansas City Center
Tue 06:02:23 PM 38.7522 -94.6131 170° South 399 459 15,800 2,177 Climbing Kansas City Center
Tue 06:03:25 PM 38.6450 -94.5842 168° South 408 470 17,800 1,887 Climbing Kansas City Center
Tue 06:04:27 PM 38.5178 -94.5503 168° South 416 479 19,700 1,645 Climbing Kansas City Center
Tue 06:05:29 PM 38.4039 -94.5281 171° South 430 495 21,200 1,355 Climbing Kansas City Center
Tue 06:06:31 PM 38.2667 -94.5244 179° South 438 504 22,500 1,306 Climbing Kansas City Center
Tue 06:07:33 PM 38.1681 -94.4397 146° Southeast 455 524 23,900 1,355 Climbing Kansas City Center
Tue 06:08:35 PM 38.0736 -94.3078 132° Southeast 453 521 25,300 1,248 Climbing Kansas City Center
Tue 06:09:38 PM 37.9922 -94.1933 132° Southeast 456 525 26,500 1,306 Climbing Kansas City Center
Tue 06:10:39 PM 37.8975 -94.0514 130° Southeast 458 527 28,000 1,403 Climbing Kansas City Center
Tue 06:11:42 PM 37.8153 -93.9311 131° Southeast 454 522 29,400 1,344 Climbing Kansas City Center
Tue 06:12:44 PM 37.7331 -93.8100 131° Southeast 454 522 30,800 1,597 Climbing Kansas City Center
Tue 06:13:46 PM 37.6511 -93.6922 131° Southeast 450 518 32,700 1,645 Climbing Kansas City Center
Tue 06:14:48 PM 37.5742 -93.5786 130° Southeast 438 504 34,200 1,113 Climbing Kansas City Center
Tue 06:15:50 PM 37.4983 -93.4656 130° Southeast 428 493 35,000 387 Climbing Kansas City Center
Tue 06:16:52 PM 37.4044 -93.3297 131° Southeast 428 493 35,000  Level Kansas City Center
Tue 06:17:54 PM 37.3247 -93.2092 130° Southeast 438 504 35,000  Level Kansas City Center
Tue 06:18:56 PM 37.2686 -93.0803 119° Southeast 426 490 35,000  Level Kansas City Center
Tue 06:19:58 PM 37.2100 -92.9464 119° Southeast 434 499 35,000  Level Kansas City Center
Tue 06:21:00 PM 37.1528 -92.8125 118° Southeast 437 503 35,000  Level Kansas City Center
Tue 06:22:02 PM 37.0958 -92.6789 118° Southeast 437 503 35,000  Level Kansas City Center
Tue 06:23:04 PM 37.0253 -92.5192 119° Southeast 438 504 35,000  Level Kansas City Center
Tue 06:24:06 PM 36.9667 -92.3844 119° Southeast 440 506 35,000  Level Kansas City Center
Tue 06:25:08 PM 36.9075 -92.2497 119° Southeast 442 509 35,000  Level Kansas City Center
Tue 06:26:11 PM 36.8486 -92.1178 119° Southeast 440 506 35,000  Level Kansas City Center
Tue 06:27:12 PM 36.7889 -91.9822 119° Southeast 442 509 35,000  Level Kansas City Center
Tue 06:28:14 PM 36.7303 -91.8481 119° Southeast 443 510 35,000  Level Kansas City Center
Tue 06:29:16 PM 36.6578 -91.6861 119° Southeast 445 512 35,000  Level Kansas City Center
Tue 06:30:05 PM 36.6072 -91.5822 121° Southeast 441 507 35,000  Level Memphis Center
Tue 06:31:05 PM 36.5478 -91.4469 119° Southeast 441 507 35,000  Level Memphis Center
Tue 06:32:05 PM 36.4989 -91.3378 119° Southeast 441 507 35,000  Level Memphis Center
Tue 06:33:05 PM 36.4269 -91.1953 122° Southeast 446 513 35,000  Level Memphis Center
Tue 06:34:05 PM 36.3694 -91.0606 118° Southeast 446 513 35,000  Level Memphis Center
Tue 06:35:05 PM 36.3053 -90.9286 121° Southeast 446 513 35,000  Level Memphis Center
Tue 06:36:05 PM 36.2456 -90.7944 119° Southeast 446 513 35,000  Level Memphis Center
Tue 06:37:05 PM 36.1833 -90.6631 120° Southeast 452 520 35,000  Level Memphis Center
Tue 06:38:05 PM 36.1208 -90.5317 120° Southeast 452 520 35,000  Level Memphis Center
Tue 06:39:05 PM 36.0586 -90.3956 119° Southeast 452 520 35,000  Level Memphis Center
Tue 06:40:05 PM 35.9958 -90.2619 120° Southeast 452 520 35,000  Level Memphis Center
Tue 06:41:05 PM 35.9311 -90.1289 121° Southeast 452 520 35,000  Level Memphis Center
Tue 06:42:05 PM 35.8683 -89.9958 120° Southeast 452 520 35,000  Level Memphis Center
Tue 06:43:05 PM 35.8053 -89.8606 120° Southeast 452 520 35,000  Level Memphis Center
Tue 06:44:05 PM 35.7400 -89.7278 121° Southeast 452 520 35,000  Level Memphis Center
Tue 06:45:05 PM 35.6786 -89.5800 117° Southeast 452 520 35,000  Level Memphis Center
Tue 06:46:05 PM 35.6150 -89.4453 120° Southeast 447 514 35,000  Level Memphis Center
Tue 06:47:05 PM 35.5514 -89.3133 121° Southeast 447 514 35,000  Level Memphis Center
Tue 06:48:05 PM 35.4878 -89.1764 120° Southeast 447 514 35,000  Level Memphis Center
Tue 06:49:05 PM 35.4239 -89.0447 121° Southeast 446 513 35,000  Level Memphis Center
Tue 06:50:05 PM 35.3642 -88.9286 122° Southeast 446 513 35,000  Level Memphis Center
Tue 06:51:05 PM 35.3019 -88.7950 120° Southeast 452 520 35,000  Level Memphis Center
Tue 06:52:05 PM 35.2378 -88.6639 121° Southeast 446 513 35,000  Level Memphis Center
Tue 06:53:05 PM 35.1711 -88.5331 122° Southeast 451 519 35,000  Level Memphis Center
Tue 06:54:05 PM 35.1025 -88.3975 122° Southeast 434 499 35,000  Level Memphis Center
Tue 06:55:05 PM 35.0356 -88.2672 122° Southeast 434 499 35,000  Level Memphis Center
Tue 06:56:05 PM 34.9706 -88.1322 120° Southeast 446 513 35,000  Level Memphis Center
Tue 06:57:05 PM 34.9056 -88.0022 121° Southeast 456 525 35,000  Level Memphis Center
Tue 06:58:05 PM 34.8556 -87.8997 121° Southeast 451 519 35,000  Level Memphis Center
Tue 06:59:05 PM 34.7794 -87.7478 121° Southeast 436 502 35,000  Level Memphis Center
Tue 07:00:05 PM 34.7142 -87.6208 122° Southeast 436 502 35,000 -400 Level Memphis Center
Tue 07:01:05 PM 34.6556 -87.5142 124° Southeast 436 502 34,200 -612 Descending Memphis Center
Tue 07:03:21 PM 34.5728 -87.1669 106° East 451 519 33,000 -369 Descending Atlanta Center
Tue 07:04:20 PM 34.5450 -87.0222 103° East 451 519 33,000  Level Atlanta Center
Tue 07:05:21 PM 34.5150 -86.8800 104° East 446 513 33,000 -450 Level Atlanta Center
Tue 07:06:20 PM 34.4722 -86.7425 111° Southeast 439 505 32,100 -1,100 Descending Atlanta Center
Tue 07:07:21 PM 34.4292 -86.6025 110° East 439 505 30,800 -1,050 Descending Atlanta Center
Tue 07:08:20 PM 34.3861 -86.4578 110° East 439 505 30,000 -700 Descending Atlanta Center
Tue 07:09:21 PM 34.3408 -86.3181 111° Southeast 444 511 29,400 -992 Descending Atlanta Center
Tue 07:10:21 PM 34.2975 -86.1761 110° East 444 511 28,000 -2,450 Descending Atlanta Center
Tue 07:11:21 PM 34.2519 -86.0317 111° Southeast 449 517 24,500 -2,000 Descending Atlanta Center
Tue 07:12:21 PM 34.2122 -85.8953 109° East 449 517 24,000 -250 Descending Atlanta Center
Tue 07:13:21 PM 34.1764 -85.7739 110° East 435 501 24,000 -252 Level Atlanta Center
Tue 07:14:20 PM 34.1344 -85.6425 111° Southeast 424 488 23,500 -1,765 Descending Atlanta Center
Tue 07:15:20 PM 34.0922 -85.5061 110° East 424 488 20,500 -2,926 Descending Atlanta Center
Tue 07:16:21 PM 34.0542 -85.3828 110° East 409 471 17,600 -3,124 Descending Atlanta Center
Tue 07:17:21 PM 34.0158 -85.2592 110° East 397 457 14,200 -2,300 Descending Atlanta Center
Tue 07:18:21 PM 33.9750 -85.1386 112° Southeast 369 425 13,000 -600 Descending Atlanta Center
Tue 07:19:21 PM 33.9364 -85.0428 116° Southeast 332 382 13,000  Level Atlanta Center
Tue 07:20:21 PM 33.8953 -84.9547 119° Southeast 307 353 13,000  Level Atlanta Center
Tue 07:21:20 PM 33.8458 -84.8692 125° Southeast 307 353 13,000  Level Atlanta Center
Tue 07:22:20 PM 33.7856 -84.7936 134° Southeast 307 353 13,000  Level Atlanta Center
Tue 07:23:20 PM 33.7256 -84.7231 136° Southeast 307 353 13,000 -100 Level Atlanta Center
Tue 07:24:20 PM 33.6631 -84.6778 149° Southeast 280 322 12,800 -403 Descending Atlanta Center
Tue 07:25:49 PM 33.5667 -84.6000 146° Southeast 267 307 12,000 -500 Descending Atlanta TRACON
Tue 07:26:20 PM 33.5383 -84.5822 152° Southeast 269 310 11,800 -1,467 Descending Atlanta Center
Tue 07:28:49 PM 33.5333 -84.3667 92° East 246 283 7,600 -1,665 Descending Atlanta TRACON
Tue 07:29:49 PM 33.5333 -84.3000 90° East 231 266 6,000 -1,750 Descending Atlanta TRACON
Tue 07:30:49 PM 33.5333 -84.2167 90° East 229 264 4,100 -1,500 Descending Atlanta TRACON
Tue 07:31:49 PM 33.5333 -84.1333 90° East 230 265 3,000 -545 Descending Atlanta TRACON
Tue 07:32:50 PM 33.5833 -84.1167 16° North 225 259 3,000  Level Atlanta TRACON
Tue 07:33:44 PM 33.6167 -84.1500 320° Northwest 180 207 3,000  Level Atlanta TRACON
Tue 07:34:50 PM 33.6167 -84.2167 270° West 181 208 3,000  Level Atlanta TRACON
Tue 07:35:50 PM 33.6167 -84.2833 270° West 182 209 3,000 -350 Level Atlanta TRACON
Tue 07:36:50 PM 33.6167 -84.3333 270° West 179 206 2,300 -750 Descending Atlanta TRACON
Tue 07:37:50 PM 33.6167 -84.3833 270° West 141 162 1,500 -800 Descending Atlanta TRACON

Login

Don't have an account? Register now (free) for customized features, flight alerts, and more!